sensor_id;sensor_type;location;lat;lon;timestamp;temperature;humidity
55036;DHT22;40936;53.008;6.556;2022-10-16T00:00:57;14.90;53.20
55036;DHT22;40936;53.008;6.556;2022-10-16T00:03:23;15.00;5.20
55036;DHT22;40936;53.008;6.556;2022-10-16T00:05:49;14.90;1.00
55036;DHT22;40936;53.008;6.556;2022-10-16T00:08:15;15.00;1.00
55036;DHT22;40936;53.008;6.556;2022-10-16T00:10:40;14.90;1.00
55036;DHT22;40936;53.008;6.556;2022-10-16T00:13:07;15.00;1.00
55036;DHT22;40936;53.008;6.556;2022-10-16T00:15:34;14.90;1.00
55036;DHT22;40936;53.008;6.556;2022-10-16T00:18:03;16.10;1.00
55036;DHT22;40936;53.008;6.556;2022-10-16T00:20:29;14.90;1.80
55036;DHT22;40936;53.008;6.556;2022-10-16T00:22:56;14.90;1.00
55036;DHT22;40936;53.008;6.556;2022-10-16T00:25:22;15.20;1.00
55036;DHT22;40936;53.008;6.556;2022-10-16T00:27:48;14.90;1.00
55036;DHT22;40936;53.008;6.556;2022-10-16T00:30:14;15.30;1.00
55036;DHT22;40936;53.008;6.556;2022-10-16T00:32:40;15.00;99.90
55036;DHT22;40936;53.008;6.556;2022-10-16T00:35:05;15.10;99.90
55036;DHT22;40936;53.008;6.556;2022-10-16T00:37:31;15.20;99.90
55036;DHT22;40936;53.008;6.556;2022-10-16T00:39:57;15.30;99.90
55036;DHT22;40936;53.008;6.556;2022-10-16T00:42:23;15.10;53.40
55036;DHT22;40936;53.008;6.556;2022-10-16T00:44:54;15.10;1.00
55036;DHT22;40936;53.008;6.556;2022-10-16T00:47:31;15.20;1.00
55036;DHT22;40936;53.008;6.556;2022-10-16T00:50:16;15.20;99.90
55036;DHT22;40936;53.008;6.556;2022-10-16T00:52:46;15.20;99.90
55036;DHT22;40936;53.008;6.556;2022-10-16T00:55:14;15.20;99.90
55036;DHT22;40936;53.008;6.556;2022-10-16T00:57:40;15.20;99.90
55036;DHT22;40936;53.008;6.556;2022-10-16T01:00:09;15.20;99.90
55036;DHT22;40936;53.008;6.556;2022-10-16T01:02:36;15.20;99.90
55036;DHT22;40936;53.008;6.556;2022-10-16T01:05:03;15.30;99.90
55036;DHT22;40936;53.008;6.556;2022-10-16T01:15:36;15.20;99.90
55036;DHT22;40936;53.008;6.556;2022-10-16T01:18:52;15.20;96.00
55036;DHT22;40936;53.008;6.556;2022-10-16T01:21:11;15.20;18.30
55036;DHT22;40936;53.008;6.556;2022-10-16T01:23:51;15.20;1.00
55036;DHT22;40936;53.008;6.556;2022-10-16T01:29:26;15.30;1.00
55036;DHT22;40936;53.008;6.556;2022-10-16T01:31:54;15.30;1.00
55036;DHT22;40936;53.008;6.556;2022-10-16T01:34:28;15.30;1.00
55036;DHT22;40936;53.008;6.556;2022-10-16T01:37:10;15.40;99.90
55036;DHT22;40936;53.008;6.556;2022-10-16T01:39:39;15.30;99.90
55036;DHT22;40936;53.008;6.556;2022-10-16T01:42:17;15.40;99.90
55036;DHT22;40936;53.008;6.556;2022-10-16T01:44:45;15.40;99.90
55036;DHT22;40936;53.008;6.556;2022-10-16T01:47:13;15.40;99.90
55036;DHT22;40936;53.008;6.556;2022-10-16T01:49:39;15.30;99.90
55036;DHT22;40936;53.008;6.556;2022-10-16T01:52:11;15.40;99.90
55036;DHT22;40936;53.008;6.556;2022-10-16T01:54:42;15.30;99.90
55036;DHT22;40936;53.008;6.556;2022-10-16T01:57:09;15.30;99.90
55036;DHT22;40936;53.008;6.556;2022-10-16T01:59:39;15.20;99.90
55036;DHT22;40936;53.008;6.556;2022-10-16T02:02:08;15.20;99.90
55036;DHT22;40936;53.008;6.556;2022-10-16T02:04:44;15.30;99.90
55036;DHT22;40936;53.008;6.556;2022-10-16T02:07:11;15.30;25.30
55036;DHT22;40936;53.008;6.556;2022-10-16T02:09:37;15.40;21.50
55036;DHT22;40936;53.008;6.556;2022-10-16T02:12:09;15.30;5.30
55036;DHT22;40936;53.008;6.556;2022-10-16T02:14:38;15.30;1.20
55036;DHT22;40936;53.008;6.556;2022-10-16T02:17:16;15.40;1.00
55036;DHT22;40936;53.008;6.556;2022-10-16T02:19:43;15.30;1.00
55036;DHT22;40936;53.008;6.556;2022-10-16T02:22:15;15.40;1.00
55036;DHT22;40936;53.008;6.556;2022-10-16T02:27:38;15.40;1.00
55036;DHT22;40936;53.008;6.556;2022-10-16T02:30:36;15.40;1.00
55036;DHT22;40936;53.008;6.556;2022-10-16T02:33:00;15.40;1.00
55036;DHT22;40936;53.008;6.556;2022-10-16T02:35:28;15.50;99.90
55036;DHT22;40936;53.008;6.556;2022-10-16T02:37:55;15.50;99.90
55036;DHT22;40936;53.008;6.556;2022-10-16T02:40:23;15.50;99.90
55036;DHT22;40936;53.008;6.556;2022-10-16T02:42:54;15.60;99.90
55036;DHT22;40936;53.008;6.556;2022-10-16T02:45:21;15.50;99.90
55036;DHT22;40936;53.008;6.556;2022-10-16T02:47:47;15.60;99.90
55036;DHT22;40936;53.008;6.556;2022-10-16T02:50:12;15.60;99.90
55036;DHT22;40936;53.008;6.556;2022-10-16T02:52:38;15.60;99.90
55036;DHT22;40936;53.008;6.556;2022-10-16T02:55:04;15.60;99.90
55036;DHT22;40936;53.008;6.556;2022-10-16T02:57:30;15.50;99.90
55036;DHT22;40936;53.008;6.556;2022-10-16T02:59:57;15.60;99.90
55036;DHT22;40936;53.008;6.556;2022-10-16T03:02:22;15.60;99.90
55036;DHT22;40936;53.008;6.556;2022-10-16T03:04:48;15.60;99.90
55036;DHT22;40936;53.008;6.556;2022-10-16T03:07:14;15.60;99.90
55036;DHT22;40936;53.008;6.556;2022-10-16T03:09:39;15.60;99.90
55036;DHT22;40936;53.008;6.556;2022-10-16T03:12:05;15.60;99.90
55036;DHT22;40936;53.008;6.556;2022-10-16T03:14:32;15.60;99.90
55036;DHT22;40936;53.008;6.556;2022-10-16T03:16:58;15.60;99.90
55036;DHT22;40936;53.008;6.556;2022-10-16T03:19:24;15.60;99.90
55036;DHT22;40936;53.008;6.556;2022-10-16T03:21:50;15.60;99.90
55036;DHT22;40936;53.008;6.556;2022-10-16T03:24:15;15.60;99.90
55036;DHT22;40936;53.008;6.556;2022-10-16T03:26:41;15.60;99.90
55036;DHT22;40936;53.008;6.556;2022-10-16T03:29:07;15.60;99.90
55036;DHT22;40936;53.008;6.556;2022-10-16T03:31:32;15.50;99.90
55036;DHT22;40936;53.008;6.556;2022-10-16T03:33:58;15.50;99.90
55036;DHT22;40936;53.008;6.556;2022-10-16T03:36:24;15.40;99.90
55036;DHT22;40936;53.008;6.556;2022-10-16T03:38:49;15.50;99.90
55036;DHT22;40936;53.008;6.556;2022-10-16T03:41:15;15.40;99.90
55036;DHT22;40936;53.008;6.556;2022-10-16T03:43:41;15.40;99.90
55036;DHT22;40936;53.008;6.556;2022-10-16T03:46:07;15.40;99.90
55036;DHT22;40936;53.008;6.556;2022-10-16T03:48:32;15.40;99.90
55036;DHT22;40936;53.008;6.556;2022-10-16T03:50:58;15.40;99.90
55036;DHT22;40936;53.008;6.556;2022-10-16T03:53:24;15.40;99.90
55036;DHT22;40936;53.008;6.556;2022-10-16T03:55:50;15.40;99.90
55036;DHT22;40936;53.008;6.556;2022-10-16T03:58:15;15.40;99.90
55036;DHT22;40936;53.008;6.556;2022-10-16T04:00:42;15.30;99.90
55036;DHT22;40936;53.008;6.556;2022-10-16T04:03:08;15.50;99.90
55036;DHT22;40936;53.008;6.556;2022-10-16T04:05:34;15.30;99.90
55036;DHT22;40936;53.008;6.556;2022-10-16T04:08:00;15.30;99.90
55036;DHT22;40936;53.008;6.556;2022-10-16T04:10:25;15.40;99.90
55036;DHT22;40936;53.008;6.556;2022-10-16T04:12:51;15.40;99.90
55036;DHT22;40936;53.008;6.556;2022-10-16T04:15:17;15.40;99.90
55036;DHT22;40936;53.008;6.556;2022-10-16T04:17:42;15.40;99.90
55036;DHT22;40936;53.008;6.556;2022-10-16T04:20:08;15.40;99.90
55036;DHT22;40936;53.008;6.556;2022-10-16T04:22:34;15.40;99.90
55036;DHT22;40936;53.008;6.556;2022-10-16T04:25:00;15.30;99.90
55036;DHT22;40936;53.008;6.556;2022-10-16T04:27:25;15.00;99.90
55036;DHT22;40936;53.008;6.556;2022-10-16T04:29:51;15.30;99.90
55036;DHT22;40936;53.008;6.556;2022-10-16T04:32:17;15.30;99.90
55036;DHT22;40936;53.008;6.556;2022-10-16T04:34:43;15.30;99.90
55036;DHT22;40936;53.008;6.556;2022-10-16T04:37:08;15.20;1.00
55036;DHT22;40936;53.008;6.556;2022-10-16T04:39:34;15.20;1.00
55036;DHT22;40936;53.008;6.556;2022-10-16T04:42:00;15.10;1.00
55036;DHT22;40936;53.008;6.556;2022-10-16T04:44:26;15.20;4.90
55036;DHT22;40936;53.008;6.556;2022-10-16T04:46:51;15.20;51.80
55036;DHT22;40936;53.008;6.556;2022-10-16T04:49:17;15.20;17.70
55036;DHT22;40936;53.008;6.556;2022-10-16T04:51:42;15.20;12.00
55036;DHT22;40936;53.008;6.556;2022-10-16T04:54:09;15.40;1.00
55036;DHT22;40936;53.008;6.556;2022-10-16T04:56:35;15.40;1.00
55036;DHT22;40936;53.008;6.556;2022-10-16T04:59:08;15.40;1.00
55036;DHT22;40936;53.008;6.556;2022-10-16T05:01:34;15.50;1.00
55036;DHT22;40936;53.008;6.556;2022-10-16T05:04:00;15.50;1.00
55036;DHT22;40936;53.008;6.556;2022-10-16T05:06:25;15.40;1.00
55036;DHT22;40936;53.008;6.556;2022-10-16T05:08:51;15.40;1.00
55036;DHT22;40936;53.008;6.556;2022-10-16T05:11:17;15.50;1.00
55036;DHT22;40936;53.008;6.556;2022-10-16T05:13:43;15.50;1.00
55036;DHT22;40936;53.008;6.556;2022-10-16T05:16:08;15.50;1.00
55036;DHT22;40936;53.008;6.556;2022-10-16T05:18:34;15.60;1.00
55036;DHT22;40936;53.008;6.556;2022-10-16T05:20:59;15.60;1.00
55036;DHT22;40936;53.008;6.556;2022-10-16T05:23:25;15.60;1.00
55036;DHT22;40936;53.008;6.556;2022-10-16T05:25:55;15.60;1.00
55036;DHT22;40936;53.008;6.556;2022-10-16T05:28:27;15.60;1.00
55036;DHT22;40936;53.008;6.556;2022-10-16T05:30:53;15.60;1.00
55036;DHT22;40936;53.008;6.556;2022-10-16T05:33:24;15.70;99.90
55036;DHT22;40936;53.008;6.556;2022-10-16T05:35:50;15.60;99.90
55036;DHT22;40936;53.008;6.556;2022-10-16T05:38:17;15.60;99.90
55036;DHT22;40936;53.008;6.556;2022-10-16T05:40:43;15.70;99.90
55036;DHT22;40936;53.008;6.556;2022-10-16T05:43:09;15.60;99.90
55036;DHT22;40936;53.008;6.556;2022-10-16T05:45:35;15.60;1.00
55036;DHT22;40936;53.008;6.556;2022-10-16T05:48:00;15.60;1.00
55036;DHT22;40936;53.008;6.556;2022-10-16T05:50:27;15.60;1.00
55036;DHT22;40936;53.008;6.556;2022-10-16T05:52:52;15.60;1.00
55036;DHT22;40936;53.008;6.556;2022-10-16T05:55:18;15.60;1.00
55036;DHT22;40936;53.008;6.556;2022-10-16T05:57:44;15.60;1.00
55036;DHT22;40936;53.008;6.556;2022-10-16T06:00:10;15.60;1.00
55036;DHT22;40936;53.008;6.556;2022-10-16T06:02:36;15.60;1.00
55036;DHT22;40936;53.008;6.556;2022-10-16T06:05:01;15.60;1.00
55036;DHT22;40936;53.008;6.556;2022-10-16T06:07:27;15.60;1.00
55036;DHT22;40936;53.008;6.556;2022-10-16T06:09:53;15.60;1.00
55036;DHT22;40936;53.008;6.556;2022-10-16T06:12:19;15.80;99.90
55036;DHT22;40936;53.008;6.556;2022-10-16T06:14:45;15.80;99.90
55036;DHT22;40936;53.008;6.556;2022-10-16T06:17:14;15.80;99.90
55036;DHT22;40936;53.008;6.556;2022-10-16T06:19:41;15.80;99.90
55036;DHT22;40936;53.008;6.556;2022-10-16T06:22:07;15.80;99.90
55036;DHT22;40936;53.008;6.556;2022-10-16T06:24:32;15.80;99.90
55036;DHT22;40936;53.008;6.556;2022-10-16T06:26:58;15.80;99.90
55036;DHT22;40936;53.008;6.556;2022-10-16T06:29:24;15.80;99.90
55036;DHT22;40936;53.008;6.556;2022-10-16T06:31:49;15.80;99.90
55036;DHT22;40936;53.008;6.556;2022-10-16T06:34:15;15.80;99.90
55036;DHT22;40936;53.008;6.556;2022-10-16T06:36:41;15.90;99.90
55036;DHT22;40936;53.008;6.556;2022-10-16T06:39:06;15.70;99.90
55036;DHT22;40936;53.008;6.556;2022-10-16T06:41:33;15.70;99.90
55036;DHT22;40936;53.008;6.556;2022-10-16T06:43:59;15.70;99.90
55036;DHT22;40936;53.008;6.556;2022-10-16T06:46:26;15.80;99.90
55036;DHT22;40936;53.008;6.556;2022-10-16T06:48:52;15.80;99.90
55036;DHT22;40936;53.008;6.556;2022-10-16T06:51:22;15.90;99.90
55036;DHT22;40936;53.008;6.556;2022-10-16T06:53:53;15.90;99.90
55036;DHT22;40936;53.008;6.556;2022-10-16T06:56:21;15.90;99.90
55036;DHT22;40936;53.008;6.556;2022-10-16T06:58:47;15.90;99.90
55036;DHT22;40936;53.008;6.556;2022-10-16T07:01:15;15.90;99.90
55036;DHT22;40936;53.008;6.556;2022-10-16T07:03:42;15.90;99.90
55036;DHT22;40936;53.008;6.556;2022-10-16T07:06:09;15.90;99.90
55036;DHT22;40936;53.008;6.556;2022-10-16T07:08:37;15.90;99.90
55036;DHT22;40936;53.008;6.556;2022-10-16T07:11:05;15.90;99.90
55036;DHT22;40936;53.008;6.556;2022-10-16T07:13:35;16.00;99.90
55036;DHT22;40936;53.008;6.556;2022-10-16T07:16:12;16.00;99.90
55036;DHT22;40936;53.008;6.556;2022-10-16T07:18:38;16.00;99.90
55036;DHT22;40936;53.008;6.556;2022-10-16T07:21:09;16.00;99.90
55036;DHT22;40936;53.008;6.556;2022-10-16T07:23:35;16.10;99.90
55036;DHT22;40936;53.008;6.556;2022-10-16T07:26:02;16.10;99.90
55036;DHT22;40936;53.008;6.556;2022-10-16T07:28:28;16.20;99.90
55036;DHT22;40936;53.008;6.556;2022-10-16T07:30:54;16.20;99.90
55036;DHT22;40936;53.008;6.556;2022-10-16T07:33:20;16.20;99.90
55036;DHT22;40936;53.008;6.556;2022-10-16T07:35:54;16.20;99.90
55036;DHT22;40936;53.008;6.556;2022-10-16T07:38:20;16.20;99.90
55036;DHT22;40936;53.008;6.556;2022-10-16T07:40:47;16.20;99.90
55036;DHT22;40936;53.008;6.556;2022-10-16T07:43:13;16.20;99.90
55036;DHT22;40936;53.008;6.556;2022-10-16T07:45:47;16.20;99.90
55036;DHT22;40936;53.008;6.556;2022-10-16T07:48:14;16.20;99.90
55036;DHT22;40936;53.008;6.556;2022-10-16T07:50:39;16.20;99.90
55036;DHT22;40936;53.008;6.556;2022-10-16T07:53:06;16.20;99.90
55036;DHT22;40936;53.008;6.556;2022-10-16T07:55:31;16.30;99.90
55036;DHT22;40936;53.008;6.556;2022-10-16T07:57:57;16.30;99.90
55036;DHT22;40936;53.008;6.556;2022-10-16T08:00:22;16.30;99.90
55036;DHT22;40936;53.008;6.556;2022-10-16T08:02:48;16.30;99.90
55036;DHT22;40936;53.008;6.556;2022-10-16T08:05:14;16.40;99.90
55036;DHT22;40936;53.008;6.556;2022-10-16T08:07:40;16.50;99.90
55036;DHT22;40936;53.008;6.556;2022-10-16T08:10:05;16.60;99.90
55036;DHT22;40936;53.008;6.556;2022-10-16T08:12:31;16.60;99.90
55036;DHT22;40936;53.008;6.556;2022-10-16T08:14:57;16.60;83.70
55036;DHT22;40936;53.008;6.556;2022-10-16T08:17:22;16.70;71.90
55036;DHT22;40936;53.008;6.556;2022-10-16T08:19:48;16.80;1.00
55036;DHT22;40936;53.008;6.556;2022-10-16T08:22:14;16.90;1.00
55036;DHT22;40936;53.008;6.556;2022-10-16T08:24:40;17.00;1.00
55036;DHT22;40936;53.008;6.556;2022-10-16T08:27:06;17.00;1.00
55036;DHT22;40936;53.008;6.556;2022-10-16T08:29:34;17.00;1.00
55036;DHT22;40936;53.008;6.556;2022-10-16T08:32:00;17.30;99.90
55036;DHT22;40936;53.008;6.556;2022-10-16T08:34:25;17.90;99.90
55036;DHT22;40936;53.008;6.556;2022-10-16T08:36:53;18.40;99.90
55036;DHT22;40936;53.008;6.556;2022-10-16T08:39:19;18.10;99.90
55036;DHT22;40936;53.008;6.556;2022-10-16T08:47:53;17.60;99.90
55036;DHT22;40936;53.008;6.556;2022-10-16T08:50:25;17.30;99.90
55036;DHT22;40936;53.008;6.556;2022-10-16T08:52:54;17.50;99.90
55036;DHT22;40936;53.008;6.556;2022-10-16T08:55:43;18.10;99.90
55036;DHT22;40936;53.008;6.556;2022-10-16T08:58:13;18.50;99.90
55036;DHT22;40936;53.008;6.556;2022-10-16T09:00:40;19.30;99.90
55036;DHT22;40936;53.008;6.556;2022-10-16T09:06:01;19.40;99.90
55036;DHT22;40936;53.008;6.556;2022-10-16T09:10:59;19.80;67.80
55036;DHT22;40936;53.008;6.556;2022-10-16T09:13:46;20.10;41.20
55036;DHT22;40936;53.008;6.556;2022-10-16T09:16:22;20.20;16.50
55036;DHT22;40936;53.008;6.556;2022-10-16T09:21:37;20.60;1.00
55036;DHT22;40936;53.008;6.556;2022-10-16T09:24:18;21.20;1.00
55036;DHT22;40936;53.008;6.556;2022-10-16T09:26:45;21.10;1.00
55036;DHT22;40936;53.008;6.556;2022-10-16T09:29:16;20.00;1.00
55036;DHT22;40936;53.008;6.556;2022-10-16T09:31:42;20.00;1.00
55036;DHT22;40936;53.008;6.556;2022-10-16T09:34:24;19.70;1.00
55036;DHT22;40936;53.008;6.556;2022-10-16T09:36:52;19.10;1.00
55036;DHT22;40936;53.008;6.556;2022-10-16T09:39:17;18.80;1.00
55036;DHT22;40936;53.008;6.556;2022-10-16T09:41:44;18.80;1.00
55036;DHT22;40936;53.008;6.556;2022-10-16T09:44:21;18.80;1.00
55036;DHT22;40936;53.008;6.556;2022-10-16T09:46:49;18.70;1.00
55036;DHT22;40936;53.008;6.556;2022-10-16T09:49:25;18.60;1.00
55036;DHT22;40936;53.008;6.556;2022-10-16T09:52:06;18.60;1.00
55036;DHT22;40936;53.008;6.556;2022-10-16T09:54:36;18.60;1.00
55036;DHT22;40936;53.008;6.556;2022-10-16T09:57:07;18.60;1.00
55036;DHT22;40936;53.008;6.556;2022-10-16T09:59:33;18.50;1.00
55036;DHT22;40936;53.008;6.556;2022-10-16T10:02:03;18.40;1.00
55036;DHT22;40936;53.008;6.556;2022-10-16T10:04:40;18.20;1.00
55036;DHT22;40936;53.008;6.556;2022-10-16T10:07:16;18.20;1.00
55036;DHT22;40936;53.008;6.556;2022-10-16T10:09:45;18.30;1.00
55036;DHT22;40936;53.008;6.556;2022-10-16T10:12:23;18.30;1.00
55036;DHT22;40936;53.008;6.556;2022-10-16T10:14:57;18.40;1.00
55036;DHT22;40936;53.008;6.556;2022-10-16T10:17:25;18.30;1.00
55036;DHT22;40936;53.008;6.556;2022-10-16T10:19:59;18.40;1.00
55036;DHT22;40936;53.008;6.556;2022-10-16T10:22:42;18.50;1.00
55036;DHT22;40936;53.008;6.556;2022-10-16T10:30:40;18.60;1.00
55036;DHT22;40936;53.008;6.556;2022-10-16T10:38:59;18.70;1.00
55036;DHT22;40936;53.008;6.556;2022-10-16T10:43:56;18.70;1.00
55036;DHT22;40936;53.008;6.556;2022-10-16T10:46:38;18.70;1.00
55036;DHT22;40936;53.008;6.556;2022-10-16T10:49:12;18.70;1.00
55036;DHT22;40936;53.008;6.556;2022-10-16T10:54:37;18.70;1.00
55036;DHT22;40936;53.008;6.556;2022-10-16T11:00:25;18.60;1.00
55036;DHT22;40936;53.008;6.556;2022-10-16T11:03:12;18.60;1.00
55036;DHT22;40936;53.008;6.556;2022-10-16T11:05:59;18.70;1.00
55036;DHT22;40936;53.008;6.556;2022-10-16T11:11:08;18.50;1.00
55036;DHT22;40936;53.008;6.556;2022-10-16T11:13:36;18.40;1.00
55036;DHT22;40936;53.008;6.556;2022-10-16T11:16:17;18.30;1.00
55036;DHT22;40936;53.008;6.556;2022-10-16T11:19:05;18.20;1.00
55036;DHT22;40936;53.008;6.556;2022-10-16T11:21:43;18.30;1.00
55036;DHT22;40936;53.008;6.556;2022-10-16T11:24:39;18.40;1.00
55036;DHT22;40936;53.008;6.556;2022-10-16T11:27:09;18.40;1.00
55036;DHT22;40936;53.008;6.556;2022-10-16T11:29:57;18.30;1.00
55036;DHT22;40936;53.008;6.556;2022-10-16T11:32:46;18.20;1.00
55036;DHT22;40936;53.008;6.556;2022-10-16T11:35:22;18.20;1.00
55036;DHT22;40936;53.008;6.556;2022-10-16T11:37:50;18.20;1.00
55036;DHT22;40936;53.008;6.556;2022-10-16T11:40:25;18.10;1.00
55036;DHT22;40936;53.008;6.556;2022-10-16T11:43:16;18.10;1.00
55036;DHT22;40936;53.008;6.556;2022-10-16T11:45:51;18.00;1.00
55036;DHT22;40936;53.008;6.556;2022-10-16T11:48:41;18.10;1.00
55036;DHT22;40936;53.008;6.556;2022-10-16T11:51:16;18.10;1.00
55036;DHT22;40936;53.008;6.556;2022-10-16T11:54:02;18.20;1.00
55036;DHT22;40936;53.008;6.556;2022-10-16T11:56:32;18.30;1.00
55036;DHT22;40936;53.008;6.556;2022-10-16T11:59:24;18.40;1.00
55036;DHT22;40936;53.008;6.556;2022-10-16T12:07:46;18.50;1.00
55036;DHT22;40936;53.008;6.556;2022-10-16T12:10:26;18.30;1.00
55036;DHT22;40936;53.008;6.556;2022-10-16T12:12:53;18.30;99.90
55036;DHT22;40936;53.008;6.556;2022-10-16T12:17:47;18.20;99.90
55036;DHT22;40936;53.008;6.556;2022-10-16T12:22:52;18.20;99.90
55036;DHT22;40936;53.008;6.556;2022-10-16T12:25:39;18.10;99.90
55036;DHT22;40936;53.008;6.556;2022-10-16T12:28:19;18.10;99.90
55036;DHT22;40936;53.008;6.556;2022-10-16T12:30:57;18.10;99.90
55036;DHT22;40936;53.008;6.556;2022-10-16T12:33:25;18.10;99.90
55036;DHT22;40936;53.008;6.556;2022-10-16T12:35:51;18.00;99.90
55036;DHT22;40936;53.008;6.556;2022-10-16T12:38:25;17.90;99.90
55036;DHT22;40936;53.008;6.556;2022-10-16T12:48:32;17.70;99.90
55036;DHT22;40936;53.008;6.556;2022-10-16T12:53:38;17.70;99.90
55036;DHT22;40936;53.008;6.556;2022-10-16T12:58:59;17.90;99.90
55036;DHT22;40936;53.008;6.556;2022-10-16T13:01:54;18.00;99.90
55036;DHT22;40936;53.008;6.556;2022-10-16T13:04:36;17.90;99.90
55036;DHT22;40936;53.008;6.556;2022-10-16T13:07:38;18.00;99.90
55036;DHT22;40936;53.008;6.556;2022-10-16T13:18:13;18.00;99.90
55036;DHT22;40936;53.008;6.556;2022-10-16T13:29:01;18.00;99.90
55036;DHT22;40936;53.008;6.556;2022-10-16T13:31:28;18.00;99.90
55036;DHT22;40936;53.008;6.556;2022-10-16T13:33:58;17.90;99.90
55036;DHT22;40936;53.008;6.556;2022-10-16T13:36:27;17.90;99.90
55036;DHT22;40936;53.008;6.556;2022-10-16T13:39:14;17.80;99.90
55036;DHT22;40936;53.008;6.556;2022-10-16T13:41:40;17.80;99.90
55036;DHT22;40936;53.008;6.556;2022-10-16T13:44:22;17.70;99.90
55036;DHT22;40936;53.008;6.556;2022-10-16T13:47:01;17.80;99.90
55036;DHT22;40936;53.008;6.556;2022-10-16T13:49:27;17.80;99.90
55036;DHT22;40936;53.008;6.556;2022-10-16T13:51:59;17.70;99.90
55036;DHT22;40936;53.008;6.556;2022-10-16T13:54:26;17.60;99.90
55036;DHT22;40936;53.008;6.556;2022-10-16T13:56:54;17.50;99.90
55036;DHT22;40936;53.008;6.556;2022-10-16T13:59:34;17.50;99.90
55036;DHT22;40936;53.008;6.556;2022-10-16T14:02:08;17.60;99.90
55036;DHT22;40936;53.008;6.556;2022-10-16T14:04:39;17.50;99.90
55036;DHT22;40936;53.008;6.556;2022-10-16T14:07:05;17.50;99.90
55036;DHT22;40936;53.008;6.556;2022-10-16T14:09:31;17.40;99.90
55036;DHT22;40936;53.008;6.556;2022-10-16T14:12:01;17.30;99.90
55036;DHT22;40936;53.008;6.556;2022-10-16T14:14:34;17.20;99.90
55036;DHT22;40936;53.008;6.556;2022-10-16T14:17:02;17.20;99.90
55036;DHT22;40936;53.008;6.556;2022-10-16T14:19:29;17.10;99.90
55036;DHT22;40936;53.008;6.556;2022-10-16T14:21:55;17.00;99.90
55036;DHT22;40936;53.008;6.556;2022-10-16T14:26:56;16.90;99.90
55036;DHT22;40936;53.008;6.556;2022-10-16T14:29:24;16.80;99.90
55036;DHT22;40936;53.008;6.556;2022-10-16T14:31:57;17.00;99.90
55036;DHT22;40936;53.008;6.556;2022-10-16T14:34:36;16.90;99.90
55036;DHT22;40936;53.008;6.556;2022-10-16T14:37:06;16.90;99.90
55036;DHT22;40936;53.008;6.556;2022-10-16T14:39:34;16.90;99.90
55036;DHT22;40936;53.008;6.556;2022-10-16T14:42:00;16.90;99.90
55036;DHT22;40936;53.008;6.556;2022-10-16T14:44:32;16.90;99.90
55036;DHT22;40936;53.008;6.556;2022-10-16T14:47:06;16.90;99.90
55036;DHT22;40936;53.008;6.556;2022-10-16T14:49:32;16.90;99.90
55036;DHT22;40936;53.008;6.556;2022-10-16T14:51:58;16.80;99.90
55036;DHT22;40936;53.008;6.556;2022-10-16T14:54:23;16.80;99.90
55036;DHT22;40936;53.008;6.556;2022-10-16T14:56:56;15.60;99.90
55036;DHT22;40936;53.008;6.556;2022-10-16T14:59:32;16.70;99.90
55036;DHT22;40936;53.008;6.556;2022-10-16T15:01:59;16.70;1.00
55036;DHT22;40936;53.008;6.556;2022-10-16T15:04:25;16.70;1.00
55036;DHT22;40936;53.008;6.556;2022-10-16T15:06:50;16.60;1.00
55036;DHT22;40936;53.008;6.556;2022-10-16T15:09:16;16.60;1.00
55036;DHT22;40936;53.008;6.556;2022-10-16T15:11:42;16.60;1.00
55036;DHT22;40936;53.008;6.556;2022-10-16T15:14:12;16.60;1.00
55036;DHT22;40936;53.008;6.556;2022-10-16T15:16:38;16.50;1.00
55036;DHT22;40936;53.008;6.556;2022-10-16T15:19:04;16.50;1.00
55036;DHT22;40936;53.008;6.556;2022-10-16T15:21:32;16.50;1.00
55036;DHT22;40936;53.008;6.556;2022-10-16T15:23:58;16.40;1.00
55036;DHT22;40936;53.008;6.556;2022-10-16T15:26:28;16.30;1.00
55036;DHT22;40936;53.008;6.556;2022-10-16T15:28:54;16.30;1.00
55036;DHT22;40936;53.008;6.556;2022-10-16T15:31:20;16.20;1.00
55036;DHT22;40936;53.008;6.556;2022-10-16T15:33:50;16.10;1.00
55036;DHT22;40936;53.008;6.556;2022-10-16T15:36:28;16.10;1.00
55036;DHT22;40936;53.008;6.556;2022-10-16T15:38:54;16.00;1.00
55036;DHT22;40936;53.008;6.556;2022-10-16T15:41:20;16.00;1.00
55036;DHT22;40936;53.008;6.556;2022-10-16T15:43:48;15.90;1.00
55036;DHT22;40936;53.008;6.556;2022-10-16T15:46:15;15.90;1.00
55036;DHT22;40936;53.008;6.556;2022-10-16T15:48:42;15.80;1.00
55036;DHT22;40936;53.008;6.556;2022-10-16T15:51:08;15.70;1.00
55036;DHT22;40936;53.008;6.556;2022-10-16T15:53:34;15.70;1.00
55036;DHT22;40936;53.008;6.556;2022-10-16T15:56:05;15.70;1.00
55036;DHT22;40936;53.008;6.556;2022-10-16T15:58:31;15.60;1.00
55036;DHT22;40936;53.008;6.556;2022-10-16T16:00:58;15.60;1.00
55036;DHT22;40936;53.008;6.556;2022-10-16T16:03:27;15.50;1.00
55036;DHT22;40936;53.008;6.556;2022-10-16T16:05:53;15.40;1.00
55036;DHT22;40936;53.008;6.556;2022-10-16T16:08:18;15.40;1.00
55036;DHT22;40936;53.008;6.556;2022-10-16T16:10:44;15.30;16.30
55036;DHT22;40936;53.008;6.556;2022-10-16T16:13:10;15.20;37.30
55036;DHT22;40936;53.008;6.556;2022-10-16T16:15:39;15.20;58.90
55036;DHT22;40936;53.008;6.556;2022-10-16T16:18:06;15.10;75.80
55036;DHT22;40936;53.008;6.556;2022-10-16T16:20:31;15.00;85.40
55036;DHT22;40936;53.008;6.556;2022-10-16T16:22:57;15.00;91.30
55036;DHT22;40936;53.008;6.556;2022-10-16T16:25:23;14.80;94.50
55036;DHT22;40936;53.008;6.556;2022-10-16T16:27:49;14.70;99.90
55036;DHT22;40936;53.008;6.556;2022-10-16T16:30:14;14.60;99.90
55036;DHT22;40936;53.008;6.556;2022-10-16T16:32:40;14.60;99.90
55036;DHT22;40936;53.008;6.556;2022-10-16T16:35:06;14.50;99.90
55036;DHT22;40936;53.008;6.556;2022-10-16T16:37:32;14.40;99.90
55036;DHT22;40936;53.008;6.556;2022-10-16T16:39:57;14.30;99.90
55036;DHT22;40936;53.008;6.556;2022-10-16T16:42:27;14.20;99.90
55036;DHT22;40936;53.008;6.556;2022-10-16T16:44:53;14.10;99.90
55036;DHT22;40936;53.008;6.556;2022-10-16T16:47:19;14.10;99.90
55036;DHT22;40936;53.008;6.556;2022-10-16T16:49:45;14.00;99.90
55036;DHT22;40936;53.008;6.556;2022-10-16T16:52:12;13.90;99.90
55036;DHT22;40936;53.008;6.556;2022-10-16T16:54:38;13.90;99.90
55036;DHT22;40936;53.008;6.556;2022-10-16T16:57:04;13.80;99.90
55036;DHT22;40936;53.008;6.556;2022-10-16T16:59:30;13.80;99.90
55036;DHT22;40936;53.008;6.556;2022-10-16T17:02:01;13.70;99.90
55036;DHT22;40936;53.008;6.556;2022-10-16T17:04:27;13.60;99.90
55036;DHT22;40936;53.008;6.556;2022-10-16T17:06:53;13.60;99.90
55036;DHT22;40936;53.008;6.556;2022-10-16T17:09:20;13.50;99.90
55036;DHT22;40936;53.008;6.556;2022-10-16T17:11:45;13.40;99.90
55036;DHT22;40936;53.008;6.556;2022-10-16T17:14:13;13.40;99.90
55036;DHT22;40936;53.008;6.556;2022-10-16T17:16:40;13.30;99.90
55036;DHT22;40936;53.008;6.556;2022-10-16T17:19:12;13.70;99.90
55036;DHT22;40936;53.008;6.556;2022-10-16T17:21:39;13.20;99.90
55036;DHT22;40936;53.008;6.556;2022-10-16T17:24:05;13.20;1.00